Terminal Aerodrome Forecast
Issued by NWS

Home | Current Version | Previous Version | Text Only | Print | Product List | Glossary On
Versions: 1 2 3 4 5 6 7 8 9 10 11 12 13
000
FTUS43 KIWX 191700 RRA
TAFSBN
TAF
KSBN 191741Z 1918/2018 15010KT P6SM SKC
     FM191900 16012KT P6SM FEW045
     FM200000 17008KT P6SM SCT250
     FM201500 21011G17KT P6SM SCT050 BKN100=

USA.gov is the U.S. government's official web portal to all federal, state and local government web resources and services.